createdAt,value
2022-08-27T02:33:58.079Z,21.2
2022-08-27T02:49:08.228Z,21.3
2022-08-27T03:04:17.218Z,21.2
2022-08-27T03:19:26.752Z,21.2
2022-08-27T03:34:36.318Z,21.2
2022-08-27T03:49:46.090Z,21.1
2022-08-27T04:04:55.006Z,21
2022-08-27T04:20:24.823Z,20.9
2022-08-27T04:35:45.659Z,20.9
2022-08-27T04:50:55.732Z,20.9
2022-08-27T05:06:04.944Z,20.9
2022-08-27T05:21:14.272Z,20.8
2022-08-27T05:36:23.372Z,20.8
2022-08-27T05:51:32.754Z,20.8
2022-08-27T06:06:42.026Z,20.9
2022-08-27T06:22:00.584Z,20.8
2022-08-27T06:37:21.025Z,20.8
2022-08-27T06:52:30.576Z,20.8
2022-08-27T07:07:44.371Z,20.8
2022-08-27T07:22:58.383Z,20.8
2022-08-27T07:38:07.070Z,20.8
2022-08-27T07:53:16.851Z,20.9
2022-08-27T08:08:26.369Z,20.9
2022-08-27T08:23:37.279Z,21
2022-08-27T08:38:48.488Z,21
2022-08-27T08:53:58.351Z,20.8
2022-08-27T09:03:46.592Z,21
2022-08-27T09:18:51.237Z,21.1
2022-08-27T09:34:02.917Z,21.3
2022-08-27T09:49:13.059Z,21.4
2022-08-27T10:04:23.335Z,21.6
2022-08-27T10:19:33.887Z,21.9
2022-08-27T10:34:43.430Z,22.2
2022-08-27T10:49:54.448Z,22.5
2022-08-27T11:05:03.986Z,22.8
2022-08-27T11:20:13.493Z,23.1
2022-08-27T11:35:22.892Z,23.4
2022-08-27T11:50:32.109Z,23.5
2022-08-27T12:05:41.903Z,23.5
2022-08-27T12:20:51.428Z,23.6
2022-08-27T12:36:00.939Z,23.5
2022-08-27T12:51:10.108Z,23.4
2022-08-27T13:06:22.739Z,23.3
2022-08-27T13:21:31.923Z,23
2022-08-27T13:36:41.367Z,22.9
2022-08-27T13:51:50.222Z,22.8
2022-08-27T14:06:59.288Z,22.7
2022-08-27T14:22:08.409Z,22.8
2022-08-27T14:37:17.375Z,22.8
2022-08-27T14:52:26.186Z,22.8
2022-08-27T15:07:35.534Z,22.6
2022-08-27T15:22:45.070Z,22.6
2022-08-27T15:37:54.566Z,22.5
2022-08-27T15:53:03.540Z,22.4
2022-08-27T16:08:13.346Z,22.3
2022-08-27T16:23:23.452Z,22.3
2022-08-27T16:38:32.900Z,22.5
2022-08-27T16:53:42.346Z,22.6
2022-08-27T17:08:51.944Z,22.5
2022-08-27T17:24:01.104Z,22.4
2022-08-27T17:39:10.565Z,22.3
2022-08-27T17:54:19.401Z,22.2
2022-08-27T18:09:28.212Z,22
2022-08-27T18:24:37.494Z,21.8
2022-08-27T18:39:46.584Z,21.7
2022-08-27T18:54:55.652Z,21.6
2022-08-27T19:10:08.810Z,21.5
2022-08-27T19:25:22.960Z,21.3
2022-08-27T19:40:32.268Z,21.1
2022-08-27T19:55:42.013Z,20.9
2022-08-27T20:10:51.982Z,20.5
2022-08-27T20:26:01.713Z,20.3
2022-08-27T20:41:10.427Z,20.1
2022-08-27T20:56:20.801Z,19.9
2022-08-27T21:11:30.487Z,19.7
2022-08-27T21:26:40.031Z,19.5
2022-08-27T21:41:49.481Z,19.3
2022-08-27T21:56:58.582Z,19.1
2022-08-27T22:12:10.897Z,18.9
2022-08-27T22:27:23.284Z,18.9
2022-08-27T22:42:32.300Z,18.4
2022-08-27T22:57:42.491Z,18
2022-08-27T23:12:51.357Z,17.7
2022-08-27T23:28:02.015Z,17.7
2022-08-27T23:45:30.560Z,18.5
